sensor_id;sensor_type;location;lat;lon;timestamp;P1;durP1;ratioP1;P2;durP2;ratioP2
20417;SDS011;10368;51.436;6.774;2023-06-22T00:00:01;8.25;;;6.68;;
20417;SDS011;10368;51.436;6.774;2023-06-22T00:02:34;8.52;;;7.22;;
20417;SDS011;10368;51.436;6.774;2023-06-22T00:05:01;8.10;;;6.53;;
20417;SDS011;10368;51.436;6.774;2023-06-22T00:07:28;10.15;;;7.35;;
20417;SDS011;10368;51.436;6.774;2023-06-22T00:09:55;7.88;;;6.45;;
20417;SDS011;10368;51.436;6.774;2023-06-22T00:12:22;12.30;;;11.02;;
20417;SDS011;10368;51.436;6.774;2023-06-22T00:14:49;8.38;;;7.50;;
20417;SDS011;10368;51.436;6.774;2023-06-22T00:17:16;8.57;;;6.82;;
20417;SDS011;10368;51.436;6.774;2023-06-22T00:19:42;10.70;;;7.03;;
20417;SDS011;10368;51.436;6.774;2023-06-22T00:22:09;6.70;;;6.10;;
20417;SDS011;10368;51.436;6.774;2023-06-22T00:24:36;8.25;;;6.72;;
20417;SDS011;10368;51.436;6.774;2023-06-22T00:27:03;8.38;;;6.90;;
20417;SDS011;10368;51.436;6.774;2023-06-22T00:29:32;7.97;;;7.15;;
20417;SDS011;10368;51.436;6.774;2023-06-22T00:31:59;11.35;;;7.00;;
20417;SDS011;10368;51.436;6.774;2023-06-22T00:34:25;6.95;;;6.35;;
20417;SDS011;10368;51.436;6.774;2023-06-22T00:36:52;8.02;;;7.22;;
20417;SDS011;10368;51.436;6.774;2023-06-22T00:39:20;7.25;;;6.55;;
20417;SDS011;10368;51.436;6.774;2023-06-22T00:41:46;7.32;;;6.63;;
20417;SDS011;10368;51.436;6.774;2023-06-22T00:44:13;8.35;;;6.88;;
20417;SDS011;10368;51.436;6.774;2023-06-22T00:46:40;9.10;;;8.18;;
20417;SDS011;10368;51.436;6.774;2023-06-22T00:49:08;7.32;;;6.63;;
20417;SDS011;10368;51.436;6.774;2023-06-22T00:51:35;8.63;;;7.35;;
20417;SDS011;10368;51.436;6.774;2023-06-22T00:54:04;8.52;;;7.72;;
20417;SDS011;10368;51.436;6.774;2023-06-22T00:56:32;7.22;;;6.38;;
20417;SDS011;10368;51.436;6.774;2023-06-22T00:58:59;9.10;;;7.88;;
20417;SDS011;10368;51.436;6.774;2023-06-22T01:01:29;11.65;;;8.10;;
20417;SDS011;10368;51.436;6.774;2023-06-22T01:03:57;9.52;;;8.45;;
20417;SDS011;10368;51.436;6.774;2023-06-22T01:06:26;7.78;;;7.03;;
20417;SDS011;10368;51.436;6.774;2023-06-22T01:09:15;9.32;;;8.43;;
20417;SDS011;10368;51.436;6.774;2023-06-22T01:11:48;8.93;;;8.02;;
20417;SDS011;10368;51.436;6.774;2023-06-22T01:14:26;7.88;;;7.15;;
20417;SDS011;10368;51.436;6.774;2023-06-22T01:17:02;21.48;;;19.17;;
20417;SDS011;10368;51.436;6.774;2023-06-22T01:19:46;11.90;;;9.13;;
20417;SDS011;10368;51.436;6.774;2023-06-22T01:22:22;10.00;;;8.10;;
20417;SDS011;10368;51.436;6.774;2023-06-22T01:25:07;8.70;;;7.80;;
20417;SDS011;10368;51.436;6.774;2023-06-22T01:27:57;8.38;;;7.57;;
20417;SDS011;10368;51.436;6.774;2023-06-22T01:30:46;10.05;;;8.30;;
20417;SDS011;10368;51.436;6.774;2023-06-22T01:33:15;11.00;;;7.70;;
20417;SDS011;10368;51.436;6.774;2023-06-22T01:35:43;9.40;;;8.45;;
20417;SDS011;10368;51.436;6.774;2023-06-22T01:38:10;11.68;;;8.10;;
20417;SDS011;10368;51.436;6.774;2023-06-22T01:40:37;9.18;;;8.38;;
20417;SDS011;10368;51.436;6.774;2023-06-22T01:43:04;9.15;;;8.15;;
20417;SDS011;10368;51.436;6.774;2023-06-22T01:45:32;9.95;;;8.90;;
20417;SDS011;10368;51.436;6.774;2023-06-22T01:47:59;8.13;;;7.22;;
20417;SDS011;10368;51.436;6.774;2023-06-22T01:50:27;11.93;;;8.05;;
20417;SDS011;10368;51.436;6.774;2023-06-22T01:52:54;12.15;;;8.70;;
20417;SDS011;10368;51.436;6.774;2023-06-22T01:55:21;9.25;;;8.35;;
20417;SDS011;10368;51.436;6.774;2023-06-22T01:57:49;9.77;;;8.80;;
20417;SDS011;10368;51.436;6.774;2023-06-22T02:00:18;10.63;;;8.75;;
20417;SDS011;10368;51.436;6.774;2023-06-22T02:02:56;9.77;;;8.88;;
20417;SDS011;10368;51.436;6.774;2023-06-22T02:05:28;12.10;;;8.93;;
20417;SDS011;10368;51.436;6.774;2023-06-22T02:08:15;10.52;;;9.10;;
20417;SDS011;10368;51.436;6.774;2023-06-22T02:10:47;9.00;;;8.10;;
20417;SDS011;10368;51.436;6.774;2023-06-22T02:13:16;9.43;;;8.48;;
20417;SDS011;10368;51.436;6.774;2023-06-22T02:15:45;10.77;;;9.20;;
20417;SDS011;10368;51.436;6.774;2023-06-22T02:18:13;22.83;;;17.10;;
20417;SDS011;10368;51.436;6.774;2023-06-22T02:20:40;20.10;;;18.02;;
20417;SDS011;10368;51.436;6.774;2023-06-22T02:23:07;11.88;;;9.82;;
20417;SDS011;10368;51.436;6.774;2023-06-22T02:25:34;10.52;;;9.40;;
20417;SDS011;10368;51.436;6.774;2023-06-22T02:28:02;10.00;;;9.10;;
20417;SDS011;10368;51.436;6.774;2023-06-22T02:30:30;10.88;;;8.30;;
20417;SDS011;10368;51.436;6.774;2023-06-22T02:32:57;11.30;;;9.90;;
20417;SDS011;10368;51.436;6.774;2023-06-22T02:35:30;9.63;;;8.70;;
20417;SDS011;10368;51.436;6.774;2023-06-22T02:38:02;10.32;;;9.40;;
20417;SDS011;10368;51.436;6.774;2023-06-22T02:40:30;11.30;;;8.90;;
20417;SDS011;10368;51.436;6.774;2023-06-22T02:42:58;12.05;;;10.77;;
20417;SDS011;10368;51.436;6.774;2023-06-22T02:45:28;11.65;;;10.35;;
20417;SDS011;10368;51.436;6.774;2023-06-22T02:47:55;11.40;;;10.23;;
20417;SDS011;10368;51.436;6.774;2023-06-22T02:50:23;10.23;;;9.40;;
20417;SDS011;10368;51.436;6.774;2023-06-22T02:52:50;11.25;;;10.15;;
20417;SDS011;10368;51.436;6.774;2023-06-22T02:55:17;12.23;;;10.10;;
20417;SDS011;10368;51.436;6.774;2023-06-22T02:57:44;14.68;;;9.70;;
20417;SDS011;10368;51.436;6.774;2023-06-22T03:00:13;11.82;;;10.63;;
20417;SDS011;10368;51.436;6.774;2023-06-22T03:02:44;10.68;;;9.68;;
20417;SDS011;10368;51.436;6.774;2023-06-22T03:05:12;14.15;;;11.10;;
20417;SDS011;10368;51.436;6.774;2023-06-22T03:07:40;10.52;;;9.55;;
20417;SDS011;10368;51.436;6.774;2023-06-22T03:10:11;10.88;;;9.95;;
20417;SDS011;10368;51.436;6.774;2023-06-22T03:12:39;11.82;;;10.02;;
20417;SDS011;10368;51.436;6.774;2023-06-22T03:15:08;14.90;;;10.32;;
20417;SDS011;10368;51.436;6.774;2023-06-22T03:17:36;11.70;;;10.52;;
20417;SDS011;10368;51.436;6.774;2023-06-22T03:20:05;12.35;;;11.13;;
20417;SDS011;10368;51.436;6.774;2023-06-22T03:22:38;13.70;;;11.00;;
20417;SDS011;10368;51.436;6.774;2023-06-22T03:25:07;17.20;;;9.70;;
20417;SDS011;10368;51.436;6.774;2023-06-22T03:27:41;12.80;;;10.45;;
20417;SDS011;10368;51.436;6.774;2023-06-22T03:30:11;11.57;;;10.32;;
20417;SDS011;10368;51.436;6.774;2023-06-22T03:32:38;12.35;;;10.10;;
20417;SDS011;10368;51.436;6.774;2023-06-22T03:35:05;15.25;;;11.60;;
20417;SDS011;10368;51.436;6.774;2023-06-22T03:37:33;13.38;;;12.07;;
20417;SDS011;10368;51.436;6.774;2023-06-22T03:40:00;15.45;;;11.85;;
20417;SDS011;10368;51.436;6.774;2023-06-22T03:42:27;12.25;;;11.00;;
20417;SDS011;10368;51.436;6.774;2023-06-22T03:44:54;12.77;;;11.52;;
20417;SDS011;10368;51.436;6.774;2023-06-22T03:47:21;12.68;;;11.45;;
20417;SDS011;10368;51.436;6.774;2023-06-22T03:49:49;13.25;;;11.95;;
20417;SDS011;10368;51.436;6.774;2023-06-22T03:52:16;12.75;;;11.45;;
20417;SDS011;10368;51.436;6.774;2023-06-22T03:54:43;13.73;;;12.32;;
20417;SDS011;10368;51.436;6.774;2023-06-22T03:57:09;12.75;;;11.55;;
20417;SDS011;10368;51.436;6.774;2023-06-22T03:59:37;12.57;;;11.38;;
20417;SDS011;10368;51.436;6.774;2023-06-22T04:02:04;16.38;;;12.13;;
20417;SDS011;10368;51.436;6.774;2023-06-22T04:04:31;13.75;;;12.32;;
20417;SDS011;10368;51.436;6.774;2023-06-22T04:06:58;15.48;;;12.55;;
20417;SDS011;10368;51.436;6.774;2023-06-22T04:09:25;14.13;;;12.82;;
20417;SDS011;10368;51.436;6.774;2023-06-22T04:11:52;15.15;;;12.23;;
20417;SDS011;10368;51.436;6.774;2023-06-22T04:14:19;13.85;;;12.13;;
20417;SDS011;10368;51.436;6.774;2023-06-22T04:16:46;12.25;;;11.00;;
20417;SDS011;10368;51.436;6.774;2023-06-22T04:19:13;16.30;;;13.13;;
20417;SDS011;10368;51.436;6.774;2023-06-22T04:21:43;13.75;;;12.35;;
20417;SDS011;10368;51.436;6.774;2023-06-22T04:24:11;14.45;;;12.95;;
20417;SDS011;10368;51.436;6.774;2023-06-22T04:26:38;12.95;;;11.75;;
20417;SDS011;10368;51.436;6.774;2023-06-22T04:29:07;13.38;;;11.95;;
20417;SDS011;10368;51.436;6.774;2023-06-22T04:31:37;15.60;;;14.20;;
20417;SDS011;10368;51.436;6.774;2023-06-22T04:34:05;14.35;;;12.90;;
20417;SDS011;10368;51.436;6.774;2023-06-22T04:36:36;14.57;;;13.07;;
20417;SDS011;10368;51.436;6.774;2023-06-22T04:39:08;16.65;;;12.93;;
20417;SDS011;10368;51.436;6.774;2023-06-22T04:41:36;17.60;;;12.73;;
20417;SDS011;10368;51.436;6.774;2023-06-22T04:44:17;13.15;;;11.95;;
20417;SDS011;10368;51.436;6.774;2023-06-22T04:49:27;14.82;;;13.30;;
20417;SDS011;10368;51.436;6.774;2023-06-22T04:51:59;14.05;;;12.70;;
20417;SDS011;10368;51.436;6.774;2023-06-22T04:54:27;14.90;;;13.32;;
20417;SDS011;10368;51.436;6.774;2023-06-22T04:56:54;16.38;;;12.65;;
20417;SDS011;10368;51.436;6.774;2023-06-22T04:59:28;16.02;;;14.43;;
20417;SDS011;10368;51.436;6.774;2023-06-22T05:02:00;14.77;;;13.38;;
20417;SDS011;10368;51.436;6.774;2023-06-22T05:04:29;14.80;;;13.27;;
20417;SDS011;10368;51.436;6.774;2023-06-22T05:06:59;15.25;;;13.80;;
20417;SDS011;10368;51.436;6.774;2023-06-22T05:09:26;17.13;;;15.07;;
20417;SDS011;10368;51.436;6.774;2023-06-22T05:11:54;15.23;;;13.65;;
20417;SDS011;10368;51.436;6.774;2023-06-22T05:14:23;14.98;;;13.75;;
20417;SDS011;10368;51.436;6.774;2023-06-22T05:16:49;16.48;;;12.40;;
20417;SDS011;10368;51.436;6.774;2023-06-22T05:19:18;14.30;;;13.00;;
20417;SDS011;10368;51.436;6.774;2023-06-22T05:21:45;16.90;;;13.70;;
20417;SDS011;10368;51.436;6.774;2023-06-22T05:24:12;15.27;;;13.50;;
20417;SDS011;10368;51.436;6.774;2023-06-22T05:26:39;13.15;;;11.85;;
20417;SDS011;10368;51.436;6.774;2023-06-22T05:29:06;13.20;;;12.00;;
20417;SDS011;10368;51.436;6.774;2023-06-22T05:31:34;17.15;;;13.32;;
20417;SDS011;10368;51.436;6.774;2023-06-22T05:34:01;12.20;;;11.00;;
20417;SDS011;10368;51.436;6.774;2023-06-22T05:36:28;14.05;;;12.10;;
20417;SDS011;10368;51.436;6.774;2023-06-22T05:38:56;16.70;;;12.75;;
20417;SDS011;10368;51.436;6.774;2023-06-22T05:41:23;13.23;;;11.85;;
20417;SDS011;10368;51.436;6.774;2023-06-22T05:43:50;14.48;;;13.27;;
20417;SDS011;10368;51.436;6.774;2023-06-22T05:46:18;15.63;;;14.13;;
20417;SDS011;10368;51.436;6.774;2023-06-22T05:48:45;16.70;;;14.02;;
20417;SDS011;10368;51.436;6.774;2023-06-22T05:51:12;14.43;;;12.90;;
20417;SDS011;10368;51.436;6.774;2023-06-22T05:53:39;15.23;;;13.73;;
20417;SDS011;10368;51.436;6.774;2023-06-22T05:56:06;15.73;;;14.20;;
20417;SDS011;10368;51.436;6.774;2023-06-22T05:58:33;15.55;;;14.05;;
20417;SDS011;10368;51.436;6.774;2023-06-22T06:01:01;15.60;;;14.20;;
20417;SDS011;10368;51.436;6.774;2023-06-22T06:03:28;21.23;;;16.45;;
20417;SDS011;10368;51.436;6.774;2023-06-22T06:05:55;15.65;;;13.70;;
20417;SDS011;10368;51.436;6.774;2023-06-22T06:08:22;16.08;;;14.32;;
20417;SDS011;10368;51.436;6.774;2023-06-22T06:10:49;24.33;;;14.93;;
20417;SDS011;10368;51.436;6.774;2023-06-22T06:13:16;16.00;;;14.07;;
20417;SDS011;10368;51.436;6.774;2023-06-22T06:15:43;18.02;;;14.65;;
20417;SDS011;10368;51.436;6.774;2023-06-22T06:18:10;18.23;;;14.68;;
20417;SDS011;10368;51.436;6.774;2023-06-22T06:20:37;18.73;;;16.60;;
20417;SDS011;10368;51.436;6.774;2023-06-22T06:23:04;18.08;;;16.05;;
20417;SDS011;10368;51.436;6.774;2023-06-22T06:25:31;17.23;;;15.52;;
20417;SDS011;10368;51.436;6.774;2023-06-22T06:27:58;18.48;;;15.75;;
20417;SDS011;10368;51.436;6.774;2023-06-22T06:30:25;19.20;;;16.77;;
20417;SDS011;10368;51.436;6.774;2023-06-22T06:32:52;17.48;;;15.82;;
20417;SDS011;10368;51.436;6.774;2023-06-22T06:35:19;17.08;;;15.38;;
20417;SDS011;10368;51.436;6.774;2023-06-22T06:37:49;17.70;;;16.00;;
20417;SDS011;10368;51.436;6.774;2023-06-22T06:40:17;18.70;;;15.75;;
20417;SDS011;10368;51.436;6.774;2023-06-22T06:42:48;17.42;;;15.77;;
20417;SDS011;10368;51.436;6.774;2023-06-22T06:45:16;17.02;;;15.45;;
20417;SDS011;10368;51.436;6.774;2023-06-22T06:47:44;19.33;;;17.23;;
20417;SDS011;10368;51.436;6.774;2023-06-22T06:50:12;18.60;;;16.80;;
20417;SDS011;10368;51.436;6.774;2023-06-22T06:52:39;18.88;;;17.17;;
20417;SDS011;10368;51.436;6.774;2023-06-22T06:55:06;19.98;;;18.08;;
20417;SDS011;10368;51.436;6.774;2023-06-22T06:57:38;19.80;;;17.08;;
20417;SDS011;10368;51.436;6.774;2023-06-22T07:00:06;18.95;;;17.00;;
20417;SDS011;10368;51.436;6.774;2023-06-22T07:02:38;22.75;;;18.15;;
20417;SDS011;10368;51.436;6.774;2023-06-22T07:05:06;21.73;;;17.70;;
20417;SDS011;10368;51.436;6.774;2023-06-22T07:07:34;19.27;;;17.33;;
20417;SDS011;10368;51.436;6.774;2023-06-22T07:10:04;22.80;;;17.17;;
20417;SDS011;10368;51.436;6.774;2023-06-22T07:12:32;18.98;;;17.00;;
20417;SDS011;10368;51.436;6.774;2023-06-22T07:15:03;20.90;;;17.52;;
20417;SDS011;10368;51.436;6.774;2023-06-22T07:17:31;18.52;;;16.40;;
20417;SDS011;10368;51.436;6.774;2023-06-22T07:19:58;20.02;;;17.38;;
20417;SDS011;10368;51.436;6.774;2023-06-22T07:22:25;19.80;;;17.35;;
20417;SDS011;10368;51.436;6.774;2023-06-22T07:24:52;21.98;;;16.83;;
20417;SDS011;10368;51.436;6.774;2023-06-22T07:27:19;19.17;;;15.98;;
20417;SDS011;10368;51.436;6.774;2023-06-22T07:29:47;17.67;;;15.80;;
20417;SDS011;10368;51.436;6.774;2023-06-22T07:32:14;20.40;;;18.27;;
20417;SDS011;10368;51.436;6.774;2023-06-22T07:34:41;18.80;;;17.00;;
20417;SDS011;10368;51.436;6.774;2023-06-22T07:37:08;24.25;;;17.92;;
20417;SDS011;10368;51.436;6.774;2023-06-22T07:39:35;19.52;;;17.50;;
20417;SDS011;10368;51.436;6.774;2023-06-22T07:42:04;19.25;;;17.27;;
20417;SDS011;10368;51.436;6.774;2023-06-22T07:44:31;21.70;;;19.60;;
20417;SDS011;10368;51.436;6.774;2023-06-22T07:46:58;20.20;;;18.25;;
20417;SDS011;10368;51.436;6.774;2023-06-22T07:49:25;21.38;;;19.35;;
20417;SDS011;10368;51.436;6.774;2023-06-22T07:51:51;19.83;;;17.90;;
20417;SDS011;10368;51.436;6.774;2023-06-22T07:54:18;20.55;;;18.55;;
20417;SDS011;10368;51.436;6.774;2023-06-22T07:56:46;22.60;;;20.38;;
20417;SDS011;10368;51.436;6.774;2023-06-22T07:59:13;24.75;;;21.88;;
20417;SDS011;10368;51.436;6.774;2023-06-22T08:01:40;22.48;;;20.02;;
20417;SDS011;10368;51.436;6.774;2023-06-22T08:04:07;22.75;;;20.42;;
20417;SDS011;10368;51.436;6.774;2023-06-22T08:06:35;23.75;;;21.48;;
20417;SDS011;10368;51.436;6.774;2023-06-22T08:09:02;23.65;;;20.83;;
20417;SDS011;10368;51.436;6.774;2023-06-22T08:11:29;28.15;;;21.38;;
20417;SDS011;10368;51.436;6.774;2023-06-22T08:13:56;22.63;;;20.30;;
20417;SDS011;10368;51.436;6.774;2023-06-22T08:16:25;30.40;;;21.30;;
20417;SDS011;10368;51.436;6.774;2023-06-22T08:18:52;22.15;;;19.95;;
20417;SDS011;10368;51.436;6.774;2023-06-22T08:21:19;22.83;;;20.67;;
20417;SDS011;10368;51.436;6.774;2023-06-22T08:23:46;21.10;;;18.90;;
20417;SDS011;10368;51.436;6.774;2023-06-22T08:26:14;22.95;;;20.73;;
20417;SDS011;10368;51.436;6.774;2023-06-22T08:28:41;25.35;;;20.17;;
20417;SDS011;10368;51.436;6.774;2023-06-22T08:31:08;24.42;;;22.08;;
20417;SDS011;10368;51.436;6.774;2023-06-22T08:33:36;25.80;;;21.67;;
20417;SDS011;10368;51.436;6.774;2023-06-22T08:36:06;25.35;;;22.95;;
20417;SDS011;10368;51.436;6.774;2023-06-22T08:38:34;23.85;;;20.08;;
20417;SDS011;10368;51.436;6.774;2023-06-22T08:41:01;23.90;;;21.15;;
20417;SDS011;10368;51.436;6.774;2023-06-22T08:43:29;22.98;;;20.95;;
20417;SDS011;10368;51.436;6.774;2023-06-22T08:45:56;24.70;;;22.23;;
20417;SDS011;10368;51.436;6.774;2023-06-22T08:48:22;24.17;;;21.92;;
20417;SDS011;10368;51.436;6.774;2023-06-22T08:50:49;24.42;;;22.20;;
20417;SDS011;10368;51.436;6.774;2023-06-22T08:53:16;26.45;;;23.48;;
20417;SDS011;10368;51.436;6.774;2023-06-22T08:55:43;25.17;;;22.42;;
20417;SDS011;10368;51.436;6.774;2023-06-22T08:58:11;23.70;;;21.15;;
20417;SDS011;10368;51.436;6.774;2023-06-22T09:00:38;43.63;;;37.85;;
20417;SDS011;10368;51.436;6.774;2023-06-22T09:03:05;29.38;;;25.70;;
20417;SDS011;10368;51.436;6.774;2023-06-22T09:05:32;25.05;;;22.55;;
20417;SDS011;10368;51.436;6.774;2023-06-22T09:07:59;22.35;;;20.23;;
20417;SDS011;10368;51.436;6.774;2023-06-22T09:10:26;22.95;;;20.73;;
20417;SDS011;10368;51.436;6.774;2023-06-22T09:12:54;23.70;;;21.15;;
20417;SDS011;10368;51.436;6.774;2023-06-22T09:15:21;23.75;;;19.95;;
20417;SDS011;10368;51.436;6.774;2023-06-22T09:17:48;21.05;;;19.05;;
20417;SDS011;10368;51.436;6.774;2023-06-22T09:20:15;22.08;;;19.80;;
20417;SDS011;10368;51.436;6.774;2023-06-22T09:22:42;20.73;;;18.25;;
20417;SDS011;10368;51.436;6.774;2023-06-22T09:25:09;23.77;;;20.67;;
20417;SDS011;10368;51.436;6.774;2023-06-22T09:27:36;20.63;;;18.73;;
20417;SDS011;10368;51.436;6.774;2023-06-22T09:30:04;21.05;;;19.08;;
20417;SDS011;10368;51.436;6.774;2023-06-22T09:32:31;23.27;;;20.98;;
20417;SDS011;10368;51.436;6.774;2023-06-22T09:34:58;21.50;;;19.15;;
20417;SDS011;10368;51.436;6.774;2023-06-22T09:37:25;22.55;;;20.23;;
20417;SDS011;10368;51.436;6.774;2023-06-22T09:39:52;20.02;;;17.83;;
20417;SDS011;10368;51.436;6.774;2023-06-22T09:42:19;20.15;;;18.15;;
20417;SDS011;10368;51.436;6.774;2023-06-22T09:44:47;19.70;;;17.83;;
20417;SDS011;10368;51.436;6.774;2023-06-22T09:47:14;22.40;;;17.60;;
20417;SDS011;10368;51.436;6.774;2023-06-22T09:49:41;21.98;;;19.30;;
20417;SDS011;10368;51.436;6.774;2023-06-22T09:52:14;21.98;;;18.30;;
20417;SDS011;10368;51.436;6.774;2023-06-22T09:54:41;21.17;;;19.05;;
20417;SDS011;10368;51.436;6.774;2023-06-22T09:57:08;21.98;;;18.45;;
20417;SDS011;10368;51.436;6.774;2023-06-22T09:59:35;22.75;;;20.20;;
20417;SDS011;10368;51.436;6.774;2023-06-22T10:02:02;20.33;;;18.27;;
20417;SDS011;10368;51.436;6.774;2023-06-22T10:04:30;22.17;;;19.30;;
20417;SDS011;10368;51.436;6.774;2023-06-22T10:06:57;19.85;;;18.15;;
20417;SDS011;10368;51.436;6.774;2023-06-22T10:09:24;26.08;;;23.52;;
20417;SDS011;10368;51.436;6.774;2023-06-22T10:11:51;23.67;;;19.17;;
20417;SDS011;10368;51.436;6.774;2023-06-22T10:14:18;21.00;;;18.90;;
20417;SDS011;10368;51.436;6.774;2023-06-22T10:16:45;20.63;;;17.48;;
20417;SDS011;10368;51.436;6.774;2023-06-22T10:19:12;21.65;;;19.27;;
20417;SDS011;10368;51.436;6.774;2023-06-22T10:21:39;17.73;;;15.75;;
20417;SDS011;10368;51.436;6.774;2023-06-22T10:24:07;18.80;;;17.15;;
20417;SDS011;10368;51.436;6.774;2023-06-22T10:26:35;19.70;;;17.55;;
20417;SDS011;10368;51.436;6.774;2023-06-22T10:29:02;18.17;;;16.27;;
20417;SDS011;10368;51.436;6.774;2023-06-22T10:31:42;17.63;;;16.20;;
20417;SDS011;10368;51.436;6.774;2023-06-22T10:34:09;20.92;;;16.80;;
20417;SDS011;10368;51.436;6.774;2023-06-22T10:36:36;20.50;;;15.85;;
20417;SDS011;10368;51.436;6.774;2023-06-22T10:39:03;19.42;;;17.42;;
20417;SDS011;10368;51.436;6.774;2023-06-22T10:41:30;16.65;;;15.02;;
20417;SDS011;10368;51.436;6.774;2023-06-22T10:43:57;16.10;;;14.48;;
20417;SDS011;10368;51.436;6.774;2023-06-22T10:46:24;14.63;;;13.40;;
20417;SDS011;10368;51.436;6.774;2023-06-22T10:48:52;24.08;;;21.88;;
20417;SDS011;10368;51.436;6.774;2023-06-22T10:51:21;20.65;;;18.67;;
20417;SDS011;10368;51.436;6.774;2023-06-22T10:53:48;16.90;;;15.13;;
20417;SDS011;10368;51.436;6.774;2023-06-22T10:56:17;15.65;;;14.27;;
20417;SDS011;10368;51.436;6.774;2023-06-22T10:58:45;16.38;;;14.90;;
20417;SDS011;10368;51.436;6.774;2023-06-22T11:01:12;17.60;;;15.80;;
20417;SDS011;10368;51.436;6.774;2023-06-22T11:03:55;17.52;;;15.90;;
20417;SDS011;10368;51.436;6.774;2023-06-22T11:06:22;17.05;;;15.40;;
20417;SDS011;10368;51.436;6.774;2023-06-22T11:08:49;16.27;;;14.98;;
20417;SDS011;10368;51.436;6.774;2023-06-22T11:11:31;15.07;;;13.75;;
20417;SDS011;10368;51.436;6.774;2023-06-22T11:13:59;19.83;;;14.90;;
20417;SDS011;10368;51.436;6.774;2023-06-22T11:16:26;19.70;;;17.63;;
20417;SDS011;10368;51.436;6.774;2023-06-22T11:18:53;17.45;;;15.50;;
20417;SDS011;10368;51.436;6.774;2023-06-22T11:21:20;16.42;;;14.68;;
20417;SDS011;10368;51.436;6.774;2023-06-22T11:23:47;16.27;;;14.70;;
20417;SDS011;10368;51.436;6.774;2023-06-22T11:26:15;19.92;;;16.42;;
20417;SDS011;10368;51.436;6.774;2023-06-22T11:28:41;19.67;;;17.15;;
20417;SDS011;10368;51.436;6.774;2023-06-22T11:31:08;16.38;;;14.98;;
20417;SDS011;10368;51.436;6.774;2023-06-22T11:33:51;19.10;;;16.73;;
20417;SDS011;10368;51.436;6.774;2023-06-22T11:36:18;21.95;;;18.13;;
20417;SDS011;10368;51.436;6.774;2023-06-22T11:38:45;20.80;;;18.60;;
20417;SDS011;10368;51.436;6.774;2023-06-22T11:41:12;22.00;;;18.90;;
20417;SDS011;10368;51.436;6.774;2023-06-22T11:43:40;26.67;;;20.40;;
20417;SDS011;10368;51.436;6.774;2023-06-22T11:46:07;25.73;;;22.40;;
20417;SDS011;10368;51.436;6.774;2023-06-22T11:48:34;22.08;;;19.90;;
20417;SDS011;10368;51.436;6.774;2023-06-22T11:51:02;31.38;;;22.38;;
20417;SDS011;10368;51.436;6.774;2023-06-22T11:53:30;24.77;;;22.38;;
20417;SDS011;10368;51.436;6.774;2023-06-22T11:55:57;24.95;;;22.40;;
20417;SDS011;10368;51.436;6.774;2023-06-22T11:58:24;45.00;;;31.90;;
20417;SDS011;10368;51.436;6.774;2023-06-22T12:00:51;31.33;;;25.80;;
20417;SDS011;10368;51.436;6.774;2023-06-22T12:03:19;27.30;;;24.65;;
20417;SDS011;10368;51.436;6.774;2023-06-22T12:05:49;32.90;;;27.70;;
20417;SDS011;10368;51.436;6.774;2023-06-22T12:08:18;36.20;;;28.00;;
20417;SDS011;10368;51.436;6.774;2023-06-22T12:10:45;29.10;;;26.20;;
20417;SDS011;10368;51.436;6.774;2023-06-22T12:13:12;27.90;;;25.13;;
20417;SDS011;10368;51.436;6.774;2023-06-22T12:15:39;28.90;;;25.67;;
20417;SDS011;10368;51.436;6.774;2023-06-22T12:18:06;29.92;;;26.95;;
20417;SDS011;10368;51.436;6.774;2023-06-22T12:20:34;28.02;;;25.13;;
20417;SDS011;10368;51.436;6.774;2023-06-22T12:23:01;28.05;;;25.33;;
20417;SDS011;10368;51.436;6.774;2023-06-22T12:25:28;37.95;;;29.40;;
20417;SDS011;10368;51.436;6.774;2023-06-22T12:27:55;30.45;;;27.27;;
20417;SDS011;10368;51.436;6.774;2023-06-22T12:30:22;28.58;;;24.70;;
20417;SDS011;10368;51.436;6.774;2023-06-22T12:32:49;29.55;;;26.52;;
20417;SDS011;10368;51.436;6.774;2023-06-22T12:35:19;28.17;;;25.23;;
20417;SDS011;10368;51.436;6.774;2023-06-22T12:37:47;31.45;;;27.80;;
20417;SDS011;10368;51.436;6.774;2023-06-22T12:40:14;29.05;;;26.05;;
20417;SDS011;10368;51.436;6.774;2023-06-22T12:42:42;34.35;;;28.10;;
20417;SDS011;10368;51.436;6.774;2023-06-22T12:45:09;32.10;;;24.83;;
20417;SDS011;10368;51.436;6.774;2023-06-22T12:47:36;36.25;;;26.30;;
20417;SDS011;10368;51.436;6.774;2023-06-22T12:50:03;38.45;;;28.95;;
20417;SDS011;10368;51.436;6.774;2023-06-22T12:52:31;27.83;;;25.30;;
20417;SDS011;10368;51.436;6.774;2023-06-22T12:55:00;28.58;;;25.60;;
20417;SDS011;10368;51.436;6.774;2023-06-22T12:57:27;28.92;;;25.10;;
20417;SDS011;10368;51.436;6.774;2023-06-22T12:59:54;32.35;;;27.98;;
20417;SDS011;10368;51.436;6.774;2023-06-22T13:02:21;31.35;;;28.17;;
20417;SDS011;10368;51.436;6.774;2023-06-22T13:04:48;32.85;;;27.52;;
20417;SDS011;10368;51.436;6.774;2023-06-22T13:07:15;32.22;;;29.17;;
20417;SDS011;10368;51.436;6.774;2023-06-22T13:09:49;32.05;;;28.52;;
20417;SDS011;10368;51.436;6.774;2023-06-22T13:12:20;31.95;;;28.65;;
20417;SDS011;10368;51.436;6.774;2023-06-22T13:14:47;32.90;;;28.42;;
20417;SDS011;10368;51.436;6.774;2023-06-22T13:17:15;32.03;;;28.95;;
20417;SDS011;10368;51.436;6.774;2023-06-22T13:19:42;36.45;;;32.38;;
20417;SDS011;10368;51.436;6.774;2023-06-22T13:24:59;37.08;;;33.40;;
20417;SDS011;10368;51.436;6.774;2023-06-22T13:27:26;40.08;;;33.03;;
20417;SDS011;10368;51.436;6.774;2023-06-22T13:29:53;42.75;;;35.20;;
20417;SDS011;10368;51.436;6.774;2023-06-22T13:32:20;34.17;;;30.75;;
20417;SDS011;10368;51.436;6.774;2023-06-22T13:34:47;36.80;;;32.83;;
20417;SDS011;10368;51.436;6.774;2023-06-22T13:37:14;34.92;;;31.25;;
20417;SDS011;10368;51.436;6.774;2023-06-22T13:39:41;32.15;;;28.88;;
20417;SDS011;10368;51.436;6.774;2023-06-22T13:42:08;35.22;;;31.77;;
20417;SDS011;10368;51.436;6.774;2023-06-22T13:44:36;39.58;;;33.47;;
20417;SDS011;10368;51.436;6.774;2023-06-22T13:47:03;35.17;;;31.45;;
20417;SDS011;10368;51.436;6.774;2023-06-22T13:49:31;31.65;;;28.42;;
20417;SDS011;10368;51.436;6.774;2023-06-22T13:51:58;33.53;;;30.13;;
20417;SDS011;10368;51.436;6.774;2023-06-22T13:54:25;34.30;;;30.92;;
20417;SDS011;10368;51.436;6.774;2023-06-22T13:56:56;32.53;;;29.23;;
20417;SDS011;10368;51.436;6.774;2023-06-22T13:59:23;31.75;;;28.77;;
20417;SDS011;10368;51.436;6.774;2023-06-22T14:01:53;31.90;;;28.77;;
20417;SDS011;10368;51.436;6.774;2023-06-22T14:04:22;33.10;;;29.88;;
20417;SDS011;10368;51.436;6.774;2023-06-22T14:06:50;34.83;;;31.33;;
20417;SDS011;10368;51.436;6.774;2023-06-22T14:09:19;30.45;;;27.52;;
20417;SDS011;10368;51.436;6.774;2023-06-22T14:11:46;32.78;;;29.65;;
20417;SDS011;10368;51.436;6.774;2023-06-22T14:14:13;32.17;;;28.25;;
20417;SDS011;10368;51.436;6.774;2023-06-22T14:16:40;33.58;;;30.17;;
20417;SDS011;10368;51.436;6.774;2023-06-22T14:19:07;33.15;;;29.67;;
20417;SDS011;10368;51.436;6.774;2023-06-22T14:21:34;33.67;;;30.23;;
20417;SDS011;10368;51.436;6.774;2023-06-22T14:24:01;31.67;;;28.75;;
20417;SDS011;10368;51.436;6.774;2023-06-22T14:26:28;34.05;;;30.60;;
20417;SDS011;10368;51.436;6.774;2023-06-22T14:28:55;34.20;;;30.80;;
20417;SDS011;10368;51.436;6.774;2023-06-22T14:31:23;32.35;;;29.27;;
20417;SDS011;10368;51.436;6.774;2023-06-22T14:33:50;35.85;;;31.88;;
20417;SDS011;10368;51.436;6.774;2023-06-22T14:36:17;31.50;;;28.75;;